createdAt,value
2018-03-30T00:02:19.713Z,146.43
2018-03-30T00:04:47.247Z,142.57
2018-03-30T00:07:15.578Z,145.73
2018-03-30T00:09:55.052Z,138.00
2018-03-30T00:12:22.633Z,136.77
2018-03-30T00:14:50.935Z,131.17
2018-03-30T00:17:18.473Z,128.17
2018-03-30T00:19:46.765Z,127.43
2018-03-30T00:22:15.064Z,131.07
2018-03-30T00:24:42.603Z,120.47
2018-03-30T00:27:10.882Z,120.60
2018-03-30T00:29:39.182Z,116.23
2018-03-30T00:32:06.707Z,120.70
2018-03-30T00:34:34.241Z,113.17
2018-03-30T00:37:01.761Z,106.90
2018-03-30T00:39:30.076Z,104.97
2018-03-30T00:41:57.633Z,99.13
2018-03-30T00:44:25.140Z,94.17
2018-03-30T00:46:52.674Z,98.40
2018-03-30T00:49:20.950Z,101.30
2018-03-30T00:51:48.466Z,101.30
2018-03-30T00:54:16.748Z,99.97
2018-03-30T00:56:45.038Z,99.93
2018-03-30T00:59:12.702Z,98.87
2018-03-30T01:01:41.001Z,92.00
2018-03-30T01:04:08.541Z,91.63
2018-03-30T01:06:36.817Z,89.10
2018-03-30T01:09:05.096Z,92.33
2018-03-30T01:11:33.409Z,88.37
2018-03-30T01:14:00.936Z,87.10
2018-03-30T01:16:29.232Z,84.83
2018-03-30T01:18:57.514Z,83.90
2018-03-30T01:21:25.794Z,79.83
2018-03-30T01:23:54.082Z,77.37
2018-03-30T01:26:21.612Z,73.60
2018-03-30T01:28:49.147Z,72.63
2018-03-30T01:31:16.682Z,70.30
2018-03-30T01:33:44.213Z,73.00
2018-03-30T01:36:12.512Z,71.47
2018-03-30T01:38:40.797Z,72.33
2018-03-30T01:41:08.319Z,69.93
2018-03-30T01:43:35.838Z,68.10
2018-03-30T01:46:03.386Z,67.47
2018-03-30T01:48:30.932Z,67.63
2018-03-30T01:50:59.216Z,68.57
2018-03-30T01:53:27.497Z,66.67
2018-03-30T01:55:55.781Z,68.40
2018-03-30T01:58:24.071Z,64.10
2018-03-30T02:00:51.583Z,63.83
2018-03-30T02:03:19.221Z,63.03
2018-03-30T02:05:46.731Z,62.67
2018-03-30T02:08:14.257Z,61.67
2018-03-30T02:10:41.766Z,63.27
2018-03-30T02:13:10.045Z,61.20
2018-03-30T02:15:37.570Z,60.77
2018-03-30T02:18:05.095Z,61.23
2018-03-30T02:20:32.644Z,60.90
2018-03-30T02:23:00.920Z,59.47
2018-03-30T02:25:29.200Z,59.50
2018-03-30T02:27:57.485Z,58.07
2018-03-30T02:30:25.785Z,58.50
2018-03-30T02:32:53.438Z,58.60
2018-03-30T02:35:21.722Z,56.60
2018-03-30T02:37:50.050Z,58.70
2018-03-30T02:40:17.586Z,58.00
2018-03-30T02:42:45.093Z,58.90
2018-03-30T02:45:12.623Z,59.87
2018-03-30T02:47:40.133Z,59.80
2018-03-30T02:50:07.644Z,56.83
2018-03-30T02:52:35.169Z,59.93
2018-03-30T02:55:03.489Z,58.97
2018-03-30T02:57:31.012Z,58.90
2018-03-30T02:59:59.311Z,59.43
2018-03-30T03:02:27.600Z,59.40
2018-03-30T03:04:55.171Z,62.77
2018-03-30T03:07:22.820Z,62.43
2018-03-30T03:09:50.349Z,61.73
2018-03-30T03:12:17.854Z,61.87
2018-03-30T03:14:45.375Z,62.40
2018-03-30T03:17:12.898Z,58.30
2018-03-30T03:19:40.541Z,61.57
2018-03-30T03:22:08.825Z,64.73
2018-03-30T03:24:36.343Z,64.70
2018-03-30T03:27:03.861Z,63.20
2018-03-30T03:29:31.373Z,64.43
2018-03-30T03:31:59.010Z,62.93
2018-03-30T03:34:26.588Z,64.63
2018-03-30T03:36:54.108Z,63.77
2018-03-30T03:39:21.645Z,63.30
2018-03-30T03:41:49.937Z,60.77
2018-03-30T03:44:18.257Z,63.20
2018-03-30T03:46:45.779Z,63.23
2018-03-30T03:49:14.060Z,66.17
2018-03-30T03:51:42.357Z,64.53
2018-03-30T03:54:09.865Z,62.43
2018-03-30T03:56:37.538Z,65.27
2018-03-30T03:59:05.083Z,63.47
2018-03-30T04:01:32.598Z,61.20
2018-03-30T04:04:00.885Z,60.83
2018-03-30T04:06:29.153Z,63.70
2018-03-30T04:08:57.431Z,63.67
2018-03-30T04:11:25.737Z,63.50
2018-03-30T04:13:53.312Z,63.10
2018-03-30T04:16:20.831Z,65.10
2018-03-30T04:18:48.353Z,65.00
2018-03-30T04:21:15.878Z,64.53
2018-03-30T04:23:44.188Z,67.03
2018-03-30T04:26:11.710Z,63.40
2018-03-30T04:28:40.023Z,64.13
2018-03-30T04:31:07.566Z,64.87
2018-03-30T04:33:35.840Z,60.67
2018-03-30T04:36:04.232Z,64.13
2018-03-30T04:38:32.529Z,61.43
2018-03-30T04:41:00.063Z,60.23
2018-03-30T04:43:28.350Z,62.63
2018-03-30T04:45:56.620Z,63.20
2018-03-30T04:48:24.141Z,65.47
2018-03-30T04:50:51.656Z,64.60
2018-03-30T04:53:19.973Z,67.37
2018-03-30T04:55:47.504Z,65.40
2018-03-30T04:58:15.786Z,66.97
2018-03-30T05:00:44.098Z,70.77
2018-03-30T05:03:11.626Z,69.07
2018-03-30T05:05:39.920Z,68.63
2018-03-30T05:08:07.445Z,70.67
2018-03-30T05:10:34.982Z,69.87
2018-03-30T05:13:02.498Z,70.47
2018-03-30T05:15:30.776Z,70.50
2018-03-30T05:17:59.073Z,75.23
2018-03-30T05:20:26.589Z,78.83
2018-03-30T05:22:54.172Z,78.33
2018-03-30T05:25:21.688Z,84.73
2018-03-30T05:27:49.258Z,91.53
2018-03-30T05:30:16.785Z,98.57
2018-03-30T05:32:45.081Z,100.37
2018-03-30T05:35:12.708Z,101.67
2018-03-30T05:37:40.228Z,99.50
2018-03-30T05:40:07.750Z,99.60
2018-03-30T05:42:36.026Z,103.10
2018-03-30T05:45:04.354Z,100.47
2018-03-30T05:47:31.935Z,87.83
2018-03-30T05:49:59.499Z,91.23
2018-03-30T05:52:27.069Z,74.87
2018-03-30T05:54:55.882Z,79.60
2018-03-30T05:57:23.843Z,78.37
2018-03-30T05:59:51.406Z,78.40
2018-03-30T06:02:18.976Z,83.57
2018-03-30T06:04:46.522Z,80.80
2018-03-30T06:07:14.038Z,76.00
2018-03-30T06:09:41.681Z,75.03
2018-03-30T06:12:10.075Z,76.50
2018-03-30T06:14:38.364Z,77.23
2018-03-30T06:17:05.918Z,73.13
2018-03-30T06:19:34.197Z,74.53
2018-03-30T06:22:02.613Z,67.13
2018-03-30T06:24:30.134Z,60.37
2018-03-30T06:26:58.425Z,51.73
2018-03-30T06:29:26.746Z,45.20
2018-03-30T06:31:54.270Z,44.57
2018-03-30T06:34:22.562Z,41.10
2018-03-30T06:36:50.120Z,39.17
2018-03-30T06:39:17.676Z,37.67
2018-03-30T06:41:45.975Z,39.57
2018-03-30T06:44:13.550Z,40.90
2018-03-30T06:46:43.039Z,41.33
2018-03-30T06:49:11.337Z,43.73
2018-03-30T06:51:39.314Z,40.40
2018-03-30T06:54:06.855Z,41.53
2018-03-30T06:56:35.177Z,38.17
2018-03-30T06:59:02.715Z,36.73
2018-03-30T07:01:30.268Z,39.20
2018-03-30T07:03:57.801Z,30.43
2018-03-30T07:06:25.371Z,31.00
2018-03-30T07:08:52.913Z,34.27
2018-03-30T07:11:20.515Z,29.17
2018-03-30T07:13:48.835Z,28.50
2018-03-30T07:16:16.395Z,26.17
2018-03-30T07:18:43.942Z,25.17
2018-03-30T07:21:11.463Z,25.23
2018-03-30T07:23:39.010Z,23.47
2018-03-30T07:26:06.596Z,22.10
2018-03-30T07:28:34.194Z,23.67
2018-03-30T07:31:01.750Z,23.83
2018-03-30T07:33:29.319Z,20.37
2018-03-30T07:35:56.880Z,20.30
2018-03-30T07:38:24.434Z,21.13
2018-03-30T07:40:52.739Z,14.03
2018-03-30T07:43:20.292Z,14.53
2018-03-30T07:45:47.820Z,14.90
2018-03-30T07:48:15.452Z,16.47
2018-03-30T07:50:43.092Z,16.60
2018-03-30T07:53:10.717Z,13.63
2018-03-30T07:55:38.939Z,13.23
2018-03-30T07:58:06.560Z,14.50
2018-03-30T08:00:34.093Z,12.20
2018-03-30T08:03:01.647Z,13.50
2018-03-30T08:05:29.240Z,17.73
2018-03-30T08:07:56.803Z,12.03
2018-03-30T08:10:24.361Z,13.10
2018-03-30T08:12:51.918Z,13.33
2018-03-30T08:15:19.456Z,12.57
2018-03-30T08:17:47.045Z,11.60
2018-03-30T08:20:14.575Z,11.97
2018-03-30T08:22:42.162Z,13.00
2018-03-30T08:25:09.748Z,12.33
2018-03-30T08:27:37.289Z,11.20
2018-03-30T08:30:04.835Z,11.20
2018-03-30T08:32:32.390Z,11.13
2018-03-30T08:35:00.077Z,10.93
2018-03-30T08:37:27.683Z,10.83
2018-03-30T08:39:55.228Z,13.03
2018-03-30T08:42:22.861Z,10.80
2018-03-30T08:44:50.420Z,9.57
2018-03-30T08:47:18.439Z,9.87
2018-03-30T08:49:45.981Z,9.07
2018-03-30T08:52:13.540Z,9.60
2018-03-30T08:54:41.107Z,9.70
2018-03-30T08:57:08.719Z,10.67
2018-03-30T08:59:37.089Z,9.23
2018-03-30T09:02:04.624Z,9.87
2018-03-30T09:04:32.181Z,9.50
2018-03-30T09:06:59.743Z,9.73
2018-03-30T09:09:27.272Z,9.67
2018-03-30T09:11:55.769Z,8.03
2018-03-30T09:14:23.334Z,9.40
2018-03-30T09:16:50.915Z,8.97
2018-03-30T09:19:18.431Z,8.57
2018-03-30T09:21:45.974Z,9.03
2018-03-30T09:24:13.531Z,8.60
2018-03-30T09:26:41.183Z,9.37
2018-03-30T09:29:08.776Z,10.27
2018-03-30T09:31:36.337Z,8.43
2018-03-30T09:34:03.885Z,9.77
2018-03-30T09:36:31.486Z,8.80
2018-03-30T09:38:59.023Z,8.73
2018-03-30T09:41:26.544Z,9.60
2018-03-30T09:43:54.069Z,10.03
2018-03-30T09:46:21.584Z,9.97
2018-03-30T09:48:49.091Z,9.77
2018-03-30T09:51:16.641Z,9.27
2018-03-30T09:53:44.184Z,8.83
2018-03-30T09:56:11.728Z,8.50
2018-03-30T09:58:39.270Z,8.20
2018-03-30T10:01:13.430Z,7.97
2018-03-30T10:03:40.951Z,25.10
2018-03-30T10:06:09.262Z,19.13
2018-03-30T10:08:36.776Z,7.87
2018-03-30T10:11:04.297Z,8.40
2018-03-30T10:13:31.827Z,9.63
2018-03-30T10:16:00.120Z,7.80
2018-03-30T10:18:27.753Z,7.20
2018-03-30T10:20:55.300Z,7.30
2018-03-30T10:23:22.799Z,7.83
2018-03-30T10:25:51.099Z,7.97
2018-03-30T10:28:18.668Z,8.10
2018-03-30T10:30:46.230Z,6.40
2018-03-30T10:33:13.758Z,6.07
2018-03-30T10:35:42.172Z,4.90
2018-03-30T10:38:09.735Z,5.10
2018-03-30T10:40:37.249Z,6.80
2018-03-30T10:43:08.373Z,6.80
2018-03-30T10:45:36.818Z,7.00
2018-03-30T10:48:05.356Z,7.07
2018-03-30T10:50:33.991Z,6.40
2018-03-30T10:53:01.584Z,6.47
2018-03-30T10:55:29.125Z,7.07
2018-03-30T10:57:56.668Z,6.57
2018-03-30T11:00:24.985Z,6.93
2018-03-30T11:02:52.496Z,7.03
2018-03-30T11:05:20.031Z,6.83
2018-03-30T11:07:47.545Z,7.70
2018-03-30T11:10:15.949Z,7.70
2018-03-30T11:12:43.448Z,7.40
2018-03-30T11:15:10.961Z,7.00
2018-03-30T11:17:38.486Z,6.67
2018-03-30T11:20:05.997Z,6.90
2018-03-30T11:22:33.518Z,7.70
2018-03-30T11:25:01.160Z,7.27
2018-03-30T11:27:28.786Z,7.20
2018-03-30T11:29:56.308Z,7.50
2018-03-30T11:32:23.799Z,7.77
2018-03-30T11:34:52.068Z,7.10
2018-03-30T11:37:19.574Z,6.53
2018-03-30T11:39:47.137Z,5.37
2018-03-30T11:42:14.746Z,5.83
2018-03-30T11:44:42.354Z,5.87
2018-03-30T11:47:09.879Z,6.20
2018-03-30T11:49:37.516Z,5.63
2018-03-30T11:52:05.243Z,5.53
2018-03-30T11:54:32.891Z,5.90
2018-03-30T11:57:01.195Z,5.40
2018-03-30T11:59:28.852Z,5.70
2018-03-30T12:01:56.398Z,11.40
2018-03-30T12:04:24.738Z,12.00
2018-03-30T12:06:52.255Z,6.83
2018-03-30T12:09:20.549Z,6.17
2018-03-30T12:11:48.065Z,5.87
2018-03-30T12:14:15.568Z,5.80
2018-03-30T12:16:43.072Z,6.00
2018-03-30T12:19:10.590Z,5.80
2018-03-30T12:21:38.861Z,5.60
2018-03-30T12:24:07.133Z,6.90
2018-03-30T12:26:34.690Z,6.53
2018-03-30T12:29:02.233Z,6.57
2018-03-30T12:31:30.510Z,6.80
2018-03-30T12:33:58.034Z,6.40
2018-03-30T12:36:25.553Z,5.30
2018-03-30T12:38:53.237Z,6.67
2018-03-30T12:41:21.525Z,7.97
2018-03-30T12:43:49.816Z,6.80
2018-03-30T12:46:18.093Z,6.37
2018-03-30T12:48:45.654Z,7.50
2018-03-30T12:51:13.940Z,7.13
2018-03-30T12:53:42.240Z,6.57
2018-03-30T12:56:09.821Z,19.13
2018-03-30T12:58:37.394Z,7.93
2018-03-30T13:01:05.862Z,8.60
2018-03-30T13:03:33.369Z,8.50
2018-03-30T13:06:00.890Z,10.50
2018-03-30T13:08:28.440Z,7.27
2018-03-30T13:10:55.962Z,14.40
2018-03-30T13:13:23.571Z,10.73
2018-03-30T13:15:51.249Z,11.87
2018-03-30T13:18:18.752Z,7.37
2018-03-30T13:20:46.327Z,6.40
2018-03-30T13:23:14.079Z,6.87
2018-03-30T13:25:41.594Z,6.50
2018-03-30T13:28:09.195Z,7.03
2018-03-30T13:30:36.736Z,7.33
2018-03-30T13:33:04.268Z,7.63
2018-03-30T13:35:32.559Z,7.50
2018-03-30T13:38:00.194Z,7.10
2018-03-30T13:40:27.708Z,6.73
2018-03-30T13:42:55.226Z,7.47
2018-03-30T13:45:23.509Z,8.53
2018-03-30T13:47:51.792Z,10.47
2018-03-30T13:50:23.845Z,9.07
2018-03-30T13:53:08.169Z,8.30
2018-03-30T13:55:35.750Z,7.73
2018-03-30T13:58:28.157Z,10.40
2018-03-30T14:00:59.374Z,9.83
2018-03-30T14:03:33.643Z,9.53
2018-03-30T14:06:31.464Z,8.60
2018-03-30T14:08:58.992Z,7.87
2018-03-30T14:11:26.597Z,8.37
2018-03-30T14:13:54.161Z,9.03
2018-03-30T14:16:26.730Z,9.03
2018-03-30T14:19:02.016Z,8.23
2018-03-30T14:21:30.496Z,8.23
2018-03-30T14:24:01.512Z,7.90
2018-03-30T14:29:29.374Z,7.13
2018-03-30T14:32:13.401Z,7.33
2018-03-30T14:34:43.892Z,7.17
2018-03-30T14:37:38.493Z,8.37
2018-03-30T14:43:02.497Z,8.50
2018-03-30T14:45:36.765Z,8.10
2018-03-30T14:48:06.223Z,7.93
2018-03-30T14:50:50.579Z,7.13
2018-03-30T14:53:28.783Z,7.13
2018-03-30T14:56:05.250Z,7.47
2018-03-30T14:58:56.307Z,7.27
2018-03-30T15:01:27.487Z,8.97
2018-03-30T15:03:57.744Z,8.10
2018-03-30T15:06:41.934Z,7.57
2018-03-30T15:09:13.435Z,7.73
2018-03-30T15:11:43.849Z,8.13
2018-03-30T15:14:29.080Z,7.57
2018-03-30T15:17:00.234Z,7.83
2018-03-30T15:19:39.013Z,9.83
2018-03-30T15:22:23.207Z,10.33
2018-03-30T15:24:55.600Z,9.73
2018-03-30T15:27:40.560Z,8.73
2018-03-30T15:30:22.162Z,12.30
2018-03-30T15:32:59.210Z,10.40
2018-03-30T15:35:29.679Z,9.10
2018-03-30T15:37:57.227Z,10.30
2018-03-30T15:40:26.954Z,8.47
2018-03-30T15:42:58.324Z,6.73
2018-03-30T15:45:30.686Z,6.63
2018-03-30T15:47:58.255Z,7.20
2018-03-30T15:50:25.812Z,10.63
2018-03-30T15:52:53.396Z,11.13
2018-03-30T15:55:21.738Z,9.47
2018-03-30T15:57:49.282Z,11.03
2018-03-30T16:00:16.822Z,13.03
2018-03-30T16:02:45.249Z,11.27
2018-03-30T16:05:12.782Z,10.40
2018-03-30T16:07:40.340Z,9.87
2018-03-30T16:10:08.628Z,9.53
2018-03-30T16:12:37.689Z,9.03
2018-03-30T16:15:05.196Z,7.70
2018-03-30T16:17:32.707Z,7.40
2018-03-30T16:19:59.779Z,8.93
2018-03-30T16:22:26.813Z,8.23
2018-03-30T16:24:53.878Z,7.97
2018-03-30T16:27:20.928Z,8.23
2018-03-30T16:29:47.944Z,8.00
2018-03-30T16:32:15.018Z,8.37
2018-03-30T16:34:42.048Z,8.00
2018-03-30T16:37:09.077Z,7.77
2018-03-30T16:39:36.144Z,7.77
2018-03-30T16:42:03.186Z,7.67
2018-03-30T16:44:30.210Z,7.70
2018-03-30T16:46:58.003Z,7.60
2018-03-30T16:49:25.098Z,8.60
2018-03-30T16:51:52.131Z,10.27
2018-03-30T16:54:19.160Z,11.60
2018-03-30T16:56:46.217Z,12.37
2018-03-30T16:59:13.265Z,12.10
2018-03-30T17:01:40.420Z,12.33
2018-03-30T17:04:07.472Z,13.13
2018-03-30T17:06:34.502Z,14.63
2018-03-30T17:09:02.320Z,14.10
2018-03-30T17:11:29.360Z,14.03
2018-03-30T17:13:57.387Z,13.73
2018-03-30T17:16:25.222Z,13.97
2018-03-30T17:18:52.274Z,13.60
2018-03-30T17:21:19.315Z,13.17
2018-03-30T17:23:46.397Z,13.03
2018-03-30T17:26:13.474Z,20.33
2018-03-30T17:28:41.325Z,18.67
2018-03-30T17:31:08.368Z,19.33
2018-03-30T17:33:35.409Z,24.37
2018-03-30T17:36:02.449Z,28.50
2018-03-30T17:38:29.526Z,22.17
2018-03-30T17:40:56.571Z,21.97
2018-03-30T17:43:23.615Z,21.10
2018-03-30T17:45:50.640Z,22.57
2018-03-30T17:48:17.736Z,26.30
2018-03-30T17:50:44.812Z,27.03
2018-03-30T17:53:11.812Z,27.07
2018-03-30T17:55:38.909Z,27.30
2018-03-30T17:58:05.945Z,25.70
2018-03-30T18:00:33.015Z,26.87
2018-03-30T18:03:00.034Z,25.97
2018-03-30T18:05:27.061Z,24.63
2018-03-30T18:07:54.240Z,25.33
2018-03-30T18:10:21.252Z,23.67
2018-03-30T18:12:48.276Z,24.03
2018-03-30T18:15:15.340Z,25.23
2018-03-30T18:17:43.162Z,25.57
2018-03-30T18:20:10.960Z,24.90
2018-03-30T18:22:37.984Z,26.43
2018-03-30T18:25:05.199Z,26.10
2018-03-30T18:27:33.017Z,24.83
2018-03-30T18:30:00.069Z,24.80
2018-03-30T18:32:27.092Z,24.10
2018-03-30T18:34:54.146Z,24.90
2018-03-30T18:37:21.237Z,25.07
2018-03-30T18:39:48.294Z,27.80
2018-03-30T18:42:15.537Z,27.43
2018-03-30T18:44:42.563Z,27.67
2018-03-30T18:47:09.609Z,21.07
2018-03-30T18:49:36.654Z,23.43
2018-03-30T18:52:03.730Z,23.07
2018-03-30T18:54:30.789Z,20.80
2018-03-30T18:56:57.907Z,20.47
2018-03-30T18:59:24.961Z,21.90
2018-03-30T19:01:52.000Z,20.50
2018-03-30T19:04:19.897Z,21.27
2018-03-30T19:06:46.921Z,21.40
2018-03-30T19:09:14.714Z,20.20
2018-03-30T19:11:41.747Z,20.90
2018-03-30T19:14:09.556Z,20.13
2018-03-30T19:16:36.609Z,20.03
2018-03-30T19:19:03.662Z,21.10
2018-03-30T19:21:30.728Z,17.93
2018-03-30T19:23:57.783Z,15.93
2018-03-30T19:26:24.818Z,14.40
2018-03-30T19:28:51.971Z,15.77
2018-03-30T19:31:19.122Z,15.87
2018-03-30T19:33:46.225Z,17.00
2018-03-30T19:36:14.042Z,17.50
2018-03-30T19:38:41.090Z,17.90
2018-03-30T19:41:08.166Z,18.07
2018-03-30T19:43:35.192Z,19.40
2018-03-30T19:46:02.240Z,21.50
2018-03-30T19:48:29.363Z,21.27
2018-03-30T19:50:56.385Z,21.93
2018-03-30T19:53:23.448Z,22.83
2018-03-30T19:55:50.477Z,32.37
2018-03-30T19:58:17.561Z,34.10
2018-03-30T20:00:44.616Z,27.17
2018-03-30T20:03:11.726Z,19.20
2018-03-30T20:05:38.753Z,17.27
2018-03-30T20:08:05.876Z,16.73
2018-03-30T20:10:32.915Z,17.27
2018-03-30T20:13:00.215Z,16.37
2018-03-30T20:15:28.024Z,17.07
2018-03-30T20:17:55.093Z,17.83
2018-03-30T20:20:22.926Z,16.33
2018-03-30T20:22:50.296Z,17.80
2018-03-30T20:25:17.399Z,16.83
2018-03-30T20:27:44.469Z,20.17
2018-03-30T20:30:12.284Z,18.50
2018-03-30T20:32:39.346Z,29.60
2018-03-30T20:35:06.434Z,33.80
2018-03-30T20:37:34.702Z,34.80
2018-03-30T20:40:02.548Z,33.70
2018-03-30T20:42:29.639Z,33.80
2018-03-30T20:44:57.585Z,24.50
2018-03-30T20:47:24.704Z,21.77
2018-03-30T20:49:52.083Z,21.97
2018-03-30T20:52:19.140Z,22.40
2018-03-30T20:54:46.175Z,20.47
2018-03-30T20:57:13.339Z,24.80
2018-03-30T20:59:40.441Z,45.90
2018-03-30T21:02:08.347Z,39.27
2018-03-30T21:04:35.413Z,30.07
2018-03-30T21:07:02.956Z,26.50
2018-03-30T21:09:30.008Z,37.40
2018-03-30T21:11:57.434Z,31.00
2018-03-30T21:14:25.348Z,29.77
2018-03-30T21:16:52.382Z,29.37
2018-03-30T21:19:19.433Z,25.37
2018-03-30T21:21:46.497Z,21.27
2018-03-30T21:24:13.574Z,26.57
2018-03-30T21:26:40.780Z,25.97
2018-03-30T21:29:08.580Z,22.10
2018-03-30T21:31:35.659Z,26.47
2018-03-30T21:34:02.754Z,30.50
2018-03-30T21:36:30.593Z,28.87
2018-03-30T21:38:57.805Z,28.07
2018-03-30T21:41:24.916Z,23.50
2018-03-30T21:43:52.019Z,23.17
2018-03-30T21:46:19.074Z,20.87
2018-03-30T21:48:46.132Z,20.13
2018-03-30T21:51:13.144Z,21.90
2018-03-30T21:53:40.928Z,20.97
2018-03-30T21:56:08.702Z,20.87
2018-03-30T21:58:35.736Z,21.20
2018-03-30T22:01:03.534Z,22.07
2018-03-30T22:03:30.554Z,22.10
2018-03-30T22:05:58.385Z,21.37
2018-03-30T22:08:25.416Z,22.60
2018-03-30T22:10:52.454Z,22.90
2018-03-30T22:13:19.478Z,25.43
2018-03-30T22:15:47.276Z,24.97
2018-03-30T22:18:14.332Z,24.97
2018-03-30T22:20:41.357Z,25.03
2018-03-30T22:23:09.164Z,26.33
2018-03-30T22:25:36.185Z,26.73
2018-03-30T22:28:04.041Z,26.90
2018-03-30T22:30:31.824Z,26.53
2018-03-30T22:32:59.634Z,26.27
2018-03-30T22:35:26.779Z,24.93
2018-03-30T22:37:53.791Z,23.50
2018-03-30T22:40:21.642Z,22.80
2018-03-30T22:42:48.660Z,22.43
2018-03-30T22:45:15.691Z,23.77
2018-03-30T22:47:42.722Z,22.47
2018-03-30T22:50:10.504Z,23.03
2018-03-30T22:52:37.676Z,26.47
2018-03-30T22:55:04.776Z,32.23
2018-03-30T22:57:31.846Z,29.63
2018-03-30T22:59:59.673Z,29.63
2018-03-30T23:02:26.710Z,32.67
2018-03-30T23:04:53.769Z,31.50
2018-03-30T23:07:20.781Z,33.07
2018-03-30T23:09:48.644Z,31.37
2018-03-30T23:12:16.494Z,29.80
2018-03-30T23:14:43.680Z,31.30
2018-03-30T23:17:11.678Z,29.57
2018-03-30T23:19:38.833Z,30.20
2018-03-30T23:22:05.887Z,30.87
2018-03-30T23:24:33.027Z,31.47
2018-03-30T23:27:00.093Z,31.50
2018-03-30T23:29:27.226Z,30.07
2018-03-30T23:31:54.304Z,30.97
2018-03-30T23:34:21.389Z,32.50
2018-03-30T23:36:48.410Z,30.63
2018-03-30T23:39:15.475Z,31.30
2018-03-30T23:41:42.537Z,30.87
2018-03-30T23:44:09.569Z,30.43
2018-03-30T23:46:36.716Z,30.47
2018-03-30T23:49:03.766Z,30.53
2018-03-30T23:51:30.844Z,31.03
2018-03-30T23:53:57.867Z,30.27
2018-03-30T23:56:24.882Z,31.07
2018-03-30T23:58:51.924Z,29.40
